Portada
METAR-TAF:

METAR-TAF

Aeroports :

Besiers, França

latitud: 43-19N, longitud: 003-21E, altitud: 17 m

Observació

L'informe es va fer fa 28 minuts, a les 14:30 UTC
Vent 9 kt del Sud-Est, variant entre Est i Sud/Sud-Est
Temperatura 12°C
Humitat 58%
Pressió 1017 hPa
Visibilitat 10 km o més
Escasses núvols a una alçada de 3400 ft
Cel cobert a una alçada de 5400 ft

METAR: LFMU 011430Z AUTO 13009KT 100V160 9999 FEW034 OVC054 12/04 Q1017

Hora: 16:58 (14:58 UTC)


TAF: manca

Observacions i pronòstics meteorològics de més de 4000 aeroports (METAR i TAF).

Les estacions disponibles són els punts grocs i vermells al mapa.

Posi el ratolí al punt desitjat per veure el nom de l'estació.

Feu clic per veure les observacions i els pronòstics meteorològics.

Per canviar el mapa: feu clic els botons verds amb una creu de color negre per apropar; al botó verd amb un guió per allunyar la imatge; o en les fletxes verdes per a mapes adjacents.


METAR-TAF: